Portada
METAR-TAF:

METAR-TAF

Aeroports :

Tarapoto, Perú

latitud: 06-27S, longitud: 076-23W, altitud: 281 m

Observació

L'informe es va fer fa 53 minuts, a les 23:00 UTC
Vent 4 kt del Est
Temperatura 29°C
Humitat 66%
Pressió 1010 hPa
Visibilitat 10 km o més
Escasses núvols a una alçada de 2500 ft

METAR: SPST 292300Z 08004KT 9999 FEW025 29/22 Q1010 RMK BIRD HAZARD RWY 17/35 PP000

Hora: 18:53 (23:53 UTC)

Pronòstic

L'informe es va fer fa 6 hores i 53 minuts, a les 17:00 UTC
Pronòstic vàlid del 29 a les 18 UTC al 30 a les 18 UTC
Vent 4 kt del Sud/Sud-Est
Visibilitat 10 km o més
Núvols disperses a una alçada de 1500 ft
Temporalment
l' 30 a les 12 UTC al 30 a les 15 UTC
Visibilitat: 3000 m
Cel ennuvolat a una alçada de 500 ft
Cel ennuvolat a una alçada de 8000 ft
boira en bancs

TAF: SPST 291700Z 2918/3018 15004KT 9999 SCT015 TX33/2920Z TN20/3011Z TEMPO 3012/3015 3000 BCFG BKN005 BKN080

Observacions i pronòstics meteorològics de més de 4000 aeroports (METAR i TAF).

Les estacions disponibles són els punts grocs i vermells al mapa.

Posi el ratolí al punt desitjat per veure el nom de l'estació.

Feu clic per veure les observacions i els pronòstics meteorològics.

Per canviar el mapa: feu clic els botons verds amb una creu de color negre per apropar; al botó verd amb un guió per allunyar la imatge; o en les fletxes verdes per a mapes adjacents.


METAR-TAF: